Time;durP1;ratioP1;P1;durP2;ratioP2;P2;SDS_P1;SDS_P2;PMS_P1;PMS_P2;Temp;Humidity;BMP_temperature;BMP_pressure;BME280_temperature;BME280_humidity;BME280_pressure;Samples;Min_cycle;Max_cycle;Signal;HPM_P1;HPM_P2
2023/06/17 00:00:52;;;;;;;53.35;19.55;;;;;;;-142.75;100.00;76790.78;5027027;28;20056;-65
2023/06/17 00:03:17;;;;;;;46.38;17.08;;;;;;;-142.75;100.00;76790.78;5026437;28;20023;-65
2023/06/17 00:05:43;;;;;;;38.58;14.80;;;;;;;-142.75;100.00;76788.81;5026956;28;20601;-65
2023/06/17 00:08:08;;;;;;;34.58;12.82;;;;;;;-142.75;100.00;76790.78;5026745;28;20027;-64
2023/06/17 00:10:33;;;;;;;24.17;10.98;;;;;;;-142.75;100.00;76788.81;5026789;28;20017;-64
2023/06/17 00:13:00;;;;;;;25.67;11.43;;;;;;;-142.75;100.00;76786.84;5027706;28;20410;-64
2023/06/17 00:15:28;;;;;;;18.33;9.00;;;;;;;-142.75;100.00;76796.69;5025225;28;20396;-64
2023/06/17 00:17:53;;;;;;;22.80;9.57;;;;;;;-142.75;100.00;76794.69;5027081;28;20029;-64
2023/06/17 00:20:20;;;;;;;22.58;9.23;;;;;;;-142.75;100.00;76790.78;5026315;28;20017;-63
2023/06/17 00:22:46;;;;;;;25.48;10.07;;;;;;;-142.75;100.00;76786.84;5026337;28;20634;-64
2023/06/17 00:25:12;;;;;;;22.20;8.32;;;;;;;-142.75;100.00;76786.84;5026935;28;20017;-64
2023/06/17 00:27:38;;;;;;;17.92;7.53;;;;;;;-142.75;100.00;76794.69;5025929;28;20083;-63
2023/06/17 00:30:05;;;;;;;15.63;7.22;;;;;;;-142.75;100.00;76794.69;5026275;28;20021;-63
2023/06/17 00:32:31;;;;;;;12.57;6.22;;;;;;;-142.75;100.00;76794.69;5026346;28;20029;-64
2023/06/17 00:34:56;;;;;;;13.95;6.20;;;;;;;-142.75;100.00;76798.66;5025133;28;20502;-63
2023/06/17 00:37:22;;;;;;;12.88;5.53;;;;;;;-142.75;100.00;76798.66;5026123;28;20075;-64
2023/06/17 00:39:47;;;;;;;14.73;5.80;;;;;;;-142.75;100.00;76798.66;5025947;28;20025;-64
2023/06/17 00:42:12;;;;;;;13.43;5.70;;;;;;;-142.75;100.00;76798.66;5025768;28;20037;-63
2023/06/17 00:44:41;;;;;;;13.65;5.40;;;;;;;-142.75;100.00;76806.50;5024609;28;20026;-64
2023/06/17 00:47:08;;;;;;;10.10;5.03;;;;;;;-142.75;100.00;76806.50;5026642;28;20029;-64
2023/06/17 00:49:36;;;;;;;13.25;5.93;;;;;;;-142.75;100.00;76810.44;5025896;28;20477;-63
2023/06/17 00:52:07;;;;;;;12.30;5.75;;;;;;;-142.75;100.00;76810.44;5026068;28;20024;-64
2023/06/17 00:54:36;;;;;;;9.85;4.90;;;;;;;-142.75;100.00;76812.41;5024362;28;20059;-64
2023/06/17 00:57:02;;;;;;;7.85;4.50;;;;;;;-142.75;100.00;76834.06;5025764;28;20052;-65
2023/06/17 00:59:32;;;;;;;8.68;4.47;;;;;;;-142.75;100.00;76832.09;5026102;28;20520;-63
2023/06/17 01:01:57;;;;;;;6.85;4.18;;;;;;;-142.75;100.00;76843.91;5025952;28;20017;-64
2023/06/17 01:04:23;;;;;;;6.25;4.43;;;;;;;-142.75;100.00;76847.84;5025536;28;20017;-64
2023/06/17 01:06:57;;;;;;;7.50;3.65;;;;;;;-142.75;100.00;76838.00;5025750;28;20017;-64
2023/06/17 01:09:28;;;;;;;7.07;4.13;;;;;;;-142.75;100.00;76838.00;5025599;28;20021;-64
2023/06/17 01:11:57;;;;;;;8.80;4.20;;;;;;;-142.75;100.00;76834.06;5025463;28;20657;-64
2023/06/17 01:14:24;;;;;;;10.80;4.22;;;;;;;-142.75;100.00;76834.06;5025519;28;20021;-64
2023/06/17 01:16:54;;;;;;;8.05;4.22;;;;;;;-142.75;100.00;76822.25;5026100;28;20031;-64
2023/06/17 01:19:23;;;;;;;6.43;4.22;;;;;;;-142.75;100.00;76822.25;5023153;28;20017;-65
2023/06/17 01:21:51;;;;;;;7.72;4.78;;;;;;;-142.75;100.00;76826.19;5024401;28;20039;-64
2023/06/17 01:24:36;;;;;;;8.00;4.78;;;;;;;-142.75;100.00;76826.19;5025020;28;20022;-64
2023/06/17 01:27:02;;;;;;;8.50;4.28;;;;;;;-142.75;100.00;76822.25;5025390;28;20061;-65
2023/06/17 01:29:38;;;;;;;9.02;3.90;;;;;;;-142.75;100.00;76826.19;5025160;28;20049;-64
2023/06/17 01:32:05;;;;;;;9.50;5.32;;;;;;;-142.75;100.00;76838.00;5025616;28;20021;-63
2023/06/17 01:34:46;;;;;;;6.47;3.90;;;;;;;-142.75;100.00;76834.06;5025183;28;20109;-64
2023/06/17 01:37:14;;;;;;;6.88;3.83;;;;;;;-142.75;100.00;76853.75;5025301;28;20029;-64
2023/06/17 01:39:44;;;;;;;7.90;3.63;;;;;;;-142.75;100.00;76859.66;5023084;28;20628;-64
2023/06/17 01:42:13;;;;;;;6.57;4.47;;;;;;;-142.75;100.00;76861.63;5023419;28;20064;-64
2023/06/17 01:44:39;;;;;;;7.90;4.68;;;;;;;-142.75;100.00;76869.50;5023879;28;20025;-64
2023/06/17 01:47:09;;;;;;;9.00;5.03;;;;;;;-142.75;100.00;76873.44;5025658;28;20108;-63
2023/06/17 01:49:35;;;;;;;8.05;4.35;;;;;;;-142.75;100.00;76877.38;5024913;28;20025;-64
2023/06/17 01:52:00;;;;;;;8.43;4.25;;;;;;;-142.75;100.00;76875.41;5025196;28;20029;-64
2023/06/17 01:54:27;;;;;;;7.05;4.57;;;;;;;-142.75;100.00;76877.38;5024936;28;20037;-63
2023/06/17 01:56:52;;;;;;;7.70;4.85;;;;;;;-142.75;100.00;76871.47;5025165;28;20043;-63
2023/06/17 01:59:17;;;;;;;6.10;4.05;;;;;;;-142.75;100.00;76873.44;5025030;28;20398;-63
2023/06/17 02:01:43;;;;;;;5.85;4.18;;;;;;;-142.75;100.00;76869.50;5024836;28;20029;-64
2023/06/17 02:04:08;;;;;;;9.18;4.97;;;;;;;-142.75;100.00;76871.47;5024808;28;20037;-63
2023/06/17 02:06:33;;;;;;;7.05;4.20;;;;;;;-142.75;100.00;76873.44;5024893;28;20037;-63
2023/06/17 02:08:58;;;;;;;7.28;4.38;;;;;;;-142.75;100.00;76879.34;5024989;28;20044;-64
2023/06/17 02:11:25;;;;;;;6.72;4.20;;;;;;;-142.75;100.00;76881.31;5024764;28;20101;-64
2023/06/17 02:13:50;;;;;;;6.72;4.95;;;;;;;-142.75;100.00;76873.44;5024656;28;20576;-63
2023/06/17 02:16:15;;;;;;;10.07;4.90;;;;;;;-142.75;100.00;76881.31;5024799;28;20030;-64
2023/06/17 02:18:41;;;;;;;13.40;5.38;;;;;;;-142.75;100.00;76885.25;5025080;28;20498;-64
2023/06/17 02:21:07;;;;;;;7.05;4.72;;;;;;;-142.75;100.00;76891.16;5024490;28;20403;-63
2023/06/17 02:23:32;;;;;;;8.30;4.85;;;;;;;-142.75;100.00;76889.19;5024620;28;20040;-62
2023/06/17 02:25:57;;;;;;;7.13;4.53;;;;;;;-142.75;100.00;76893.13;5024983;28;20056;-63
2023/06/17 02:28:23;;;;;;;8.00;5.35;;;;;;;-142.75;100.00;76893.13;5024514;28;20040;-64
2023/06/17 02:30:48;;;;;;;9.90;4.95;;;;;;;-142.75;100.00;76895.09;5024737;28;20422;-63
2023/06/17 02:33:17;;;;;;;7.40;5.18;;;;;;;-142.75;100.00;76891.16;5024443;28;20079;-64
2023/06/17 02:35:43;;;;;;;6.18;4.25;;;;;;;-142.75;100.00;76897.06;5024824;28;20033;-64
2023/06/17 02:38:08;;;;;;;7.35;4.93;;;;;;;-142.75;100.00;76895.09;5024617;28;20508;-63
2023/06/17 02:40:34;;;;;;;12.00;6.28;;;;;;;-142.75;100.00;76899.03;5024858;28;20028;-64
2023/06/17 02:42:59;;;;;;;11.50;5.82;;;;;;;-142.75;100.00;76901.00;5024619;28;20519;-64
2023/06/17 02:45:25;;;;;;;7.88;5.47;;;;;;;-142.75;100.00;76901.00;5024635;28;20415;-63
2023/06/17 02:47:50;;;;;;;8.15;5.72;;;;;;;-142.75;100.00;76904.94;5024994;28;20029;-64
2023/06/17 02:50:20;;;;;;;10.52;6.25;;;;;;;-142.75;100.00;76902.97;5025729;28;20037;-64
2023/06/17 02:52:47;;;;;;;9.43;5.40;;;;;;;-142.75;100.00;76910.84;5027713;28;20021;-64
2023/06/17 02:55:13;;;;;;;6.97;5.50;;;;;;;-142.75;100.00;76910.84;5027577;28;20590;-64
2023/06/17 02:57:38;;;;;;;9.00;5.60;;;;;;;-142.75;100.00;76912.81;5027982;28;20120;-64
2023/06/17 03:00:08;;;;;;;9.52;6.32;;;;;;;-142.75;100.00;76908.88;5027556;28;20035;-63
2023/06/17 03:02:33;;;;;;;8.90;6.68;;;;;;;-142.75;100.00;76910.84;5028034;28;20052;-63
2023/06/17 03:04:59;;;;;;;9.25;5.97;;;;;;;-142.75;100.00;76908.88;5028081;28;20056;-64
2023/06/17 03:07:25;;;;;;;10.55;6.95;;;;;;;-142.75;100.00;76912.81;5027895;28;20108;-64
2023/06/17 03:09:50;;;;;;;8.45;5.65;;;;;;;-142.75;100.00;76916.75;5027904;28;20029;-63
2023/06/17 03:12:15;;;;;;;9.88;6.57;;;;;;;-142.75;100.00;76912.81;5027898;28;20076;-64
2023/06/17 03:14:41;;;;;;;9.15;5.97;;;;;;;-142.75;100.00;76918.72;5027654;28;20491;-63
2023/06/17 03:17:10;;;;;;;7.20;5.55;;;;;;;-142.75;100.00;76916.75;5028190;28;20025;-64
2023/06/17 03:19:36;;;;;;;9.00;5.95;;;;;;;-142.75;100.00;76920.69;5027445;28;20033;-63
2023/06/17 03:22:01;;;;;;;9.25;5.75;;;;;;;-142.75;100.00;76924.63;5027542;28;20032;-64
2023/06/17 03:24:26;;;;;;;9.90;6.40;;;;;;;-142.75;100.00;76928.56;5027494;28;20105;-64
2023/06/17 03:26:53;;;;;;;11.02;6.75;;;;;;;-142.75;100.00;76928.56;5027779;28;21319;-64
2023/06/17 03:29:18;;;;;;;10.98;6.82;;;;;;;-142.75;100.00;76924.63;5027231;28;20079;-64
2023/06/17 03:31:44;;;;;;;12.85;7.22;;;;;;;-142.75;100.00;76934.47;5027486;28;20021;-64
2023/06/17 03:34:09;;;;;;;11.25;7.40;;;;;;;-142.75;100.00;76936.44;5042778;28;20030;-64
2023/06/17 03:36:34;;;;;;;14.10;7.60;;;;;;;-142.75;100.00;76944.31;5027290;28;20025;-64
2023/06/17 03:39:00;;;;;;;10.63;7.00;;;;;;;-142.75;100.00;76942.34;5027593;28;20026;-64
2023/06/17 03:41:26;;;;;;;10.65;6.82;;;;;;;-142.75;100.00;76940.38;5027214;28;20037;-64
2023/06/17 03:43:51;;;;;;;11.75;7.32;;;;;;;-142.75;100.00;76942.34;5027136;28;20045;-64
2023/06/17 03:46:18;;;;;;;10.48;7.20;;;;;;;-142.75;100.00;76936.44;5027392;28;20040;-64
2023/06/17 03:48:43;;;;;;;14.15;6.75;;;;;;;-142.75;100.00;76940.38;5027427;28;20079;-64
2023/06/17 03:51:08;;;;;;;13.35;7.53;;;;;;;-142.75;100.00;76936.44;5027116;28;20052;-64
2023/06/17 03:53:34;;;;;;;12.60;7.85;;;;;;;-142.75;100.00;76932.50;5027022;28;20068;-63
2023/06/17 03:55:59;;;;;;;13.48;8.35;;;;;;;-142.75;100.00;76932.50;5027287;28;20487;-64
2023/06/17 03:58:25;;;;;;;12.63;8.02;;;;;;;-142.75;100.00;76926.59;5026672;28;20088;-64
2023/06/17 04:00:51;;;;;;;11.35;7.53;;;;;;;-142.75;100.00;76922.66;5026966;28;20048;-65
2023/06/17 04:03:24;;;;;;;12.57;7.82;;;;;;;-142.75;100.00;76916.75;5026091;28;20186;-63
2023/06/17 04:05:50;;;;;;;11.07;8.20;;;;;;;-142.75;100.00;76922.66;5026787;28;20021;-63
2023/06/17 04:08:17;;;;;;;11.40;8.25;;;;;;;-142.75;100.00;76908.88;5026797;28;20590;-63
2023/06/17 04:10:42;;;;;;;11.60;7.78;;;;;;;-142.75;100.00;76901.00;5026750;28;20553;-64
2023/06/17 04:13:08;;;;;;;14.90;8.07;;;;;;;-142.75;100.00;76899.03;5026150;28;20021;-64
2023/06/17 04:15:33;;;;;;;12.00;8.05;;;;;;;-142.75;100.00;76897.06;5026600;28;20022;-63
2023/06/17 04:17:59;;;;;;;17.35;9.85;;;;;;;-142.75;100.00;76893.13;5027422;28;20051;-65
2023/06/17 04:20:25;;;;;;;12.07;7.55;;;;;;;-142.75;100.00;76885.25;5026509;28;20021;-64
2023/06/17 04:22:50;;;;;;;13.88;8.60;;;;;;;-142.75;100.00;76877.38;5026370;28;20524;-64
2023/06/17 04:25:20;;;;;;;19.10;9.88;;;;;;;-142.75;100.00;76861.63;5026615;28;20100;-64
2023/06/17 04:27:48;;;;;;;16.80;10.68;;;;;;;-142.75;100.00;76857.69;5041453;28;20504;-64
2023/06/17 04:30:15;;;;;;;20.20;12.45;;;;;;;-142.75;100.00;76849.81;5026599;28;20112;-64
2023/06/17 04:32:42;;;;;;;16.20;11.20;;;;;;;-142.75;100.00;76843.91;5027426;28;20013;-64
2023/06/17 04:35:09;;;;;;;19.02;11.45;;;;;;;-142.75;100.00;76826.19;5033023;28;20051;-65
2023/06/17 04:37:36;;;;;;;19.45;12.48;;;;;;;-142.75;100.00;76818.31;5036829;28;20025;-63
2023/06/17 04:40:06;;;;;;;20.00;11.80;;;;;;;-142.75;100.00;76800.63;5026769;28;20021;-64
2023/06/17 04:42:33;;;;;;;16.55;11.20;;;;;;;-142.75;100.00;76792.75;5026040;28;20495;-64
2023/06/17 04:44:59;;;;;;;17.63;10.70;;;;;;;-142.75;100.00;76765.19;5026380;28;20367;-64
2023/06/17 04:47:24;;;;;;;17.63;11.75;;;;;;;-142.75;100.00;76767.16;5026552;28;20032;-63
2023/06/17 04:49:51;;;;;;;17.35;11.65;;;;;;;-142.75;100.00;76749.44;5025687;28;20025;-64
2023/06/17 04:52:20;;;;;;;19.55;11.32;;;;;;;-142.75;100.00;76733.69;5025896;28;20104;-64
2023/06/17 04:54:46;;;;;;;16.95;11.38;;;;;;;-142.75;100.00;76712.03;5025698;28;20060;-64
2023/06/17 04:57:12;;;;;;;19.17;10.70;;;;;;;-142.75;100.00;76696.28;5025525;28;20028;-64
2023/06/17 04:59:37;;;;;;;22.08;12.13;;;;;;;-142.75;100.00;76682.50;5025101;28;20021;-64
2023/06/17 05:02:03;;;;;;;17.17;11.30;;;;;;;-142.75;100.00;76674.63;5025437;28;20037;-63
2023/06/17 05:04:29;;;;;;;17.33;11.13;;;;;;;-142.75;100.00;76668.72;5025804;28;20087;-65
2023/06/17 05:06:54;;;;;;;15.55;11.15;;;;;;;-142.75;100.00;76652.97;5025796;28;20032;-64
2023/06/17 05:09:20;;;;;;;17.25;11.82;;;;;;;-142.75;100.00;76641.16;5025472;28;20032;-65
2023/06/17 05:11:45;;;;;;;17.88;11.88;;;;;;;-142.75;100.00;76625.41;5025418;28;20026;-64
2023/06/17 05:14:10;;;;;;;18.33;11.90;;;;;;;-142.75;100.00;76611.63;5024692;28;20032;-64
2023/06/17 05:16:36;;;;;;;18.65;12.32;;;;;;;-142.75;100.00;76607.69;5025450;28;20057;-63
2023/06/17 05:19:01;;;;;;;16.90;12.10;;;;;;;-142.75;100.00;76607.69;5026030;28;20040;-64
2023/06/17 05:21:27;;;;;;;20.80;13.02;;;;;;;-142.75;100.00;76601.78;5025202;28;20021;-64
2023/06/17 05:23:52;;;;;;;21.00;12.75;;;;;;;-142.75;100.00;76578.16;5025137;28;20071;-64
2023/06/17 05:26:17;;;;;;;20.88;13.45;;;;;;;-142.75;100.00;76560.44;5025722;28;20502;-64
2023/06/17 05:28:43;;;;;;;20.63;13.93;;;;;;;-142.75;100.00;76554.53;5025182;28;21427;-64
2023/06/17 05:31:09;;;;;;;21.60;15.10;;;;;;;-142.75;100.00;76544.69;5025260;28;20413;-64
2023/06/17 05:33:35;;;;;;;20.17;13.88;;;;;;;-142.75;100.00;76530.91;5025155;28;20017;-63
2023/06/17 05:36:00;;;;;;;20.17;13.10;;;;;;;-142.75;100.00;76528.97;5025424;28;20024;-64
2023/06/17 05:38:29;;;;;;;17.30;11.93;;;;;;;-142.75;100.00;76519.13;5024787;28;20425;-64
2023/06/17 05:40:55;;;;;;;17.73;11.98;;;;;;;-142.75;100.00;76503.38;5022594;28;20021;-64
2023/06/17 05:43:20;;;;;;;18.50;11.82;;;;;;;-142.75;100.00;76489.59;5023903;28;20391;-64
2023/06/17 05:45:45;;;;;;;15.82;10.43;;;;;;;-142.75;100.00;76491.56;5023926;28;20100;-64
2023/06/17 05:48:12;;;;;;;17.27;11.52;;;;;;;-142.75;100.00;76489.59;5023807;28;20018;-63
2023/06/17 05:50:37;;;;;;;18.08;11.13;;;;;;;-142.75;100.00;76485.66;5024212;28;20447;-64
2023/06/17 05:53:03;;;;;;;17.23;11.43;;;;;;;-142.75;100.00;76487.63;5024079;28;20030;-63
2023/06/17 05:55:28;;;;;;;18.67;11.20;;;;;;;-142.75;100.00;76460.06;5024422;28;20021;-64
2023/06/17 05:57:54;;;;;;;16.60;10.73;;;;;;;-142.75;100.00;76444.31;5023558;28;20108;-64
2023/06/17 06:00:20;;;;;;;14.88;9.70;;;;;;;-142.75;100.00;76432.50;5024310;28;20133;-64
2023/06/17 06:02:46;;;;;;;13.70;9.25;;;;;;;-142.75;100.00;76422.66;5024363;28;20020;-65
2023/06/17 06:05:11;;;;;;;14.43;8.85;;;;;;;-142.75;100.00;76424.63;5024380;28;20021;-63
2023/06/17 06:07:37;;;;;;;11.77;8.13;;;;;;;-142.75;100.00;76422.66;5023881;28;20021;-64
2023/06/17 06:10:05;;;;;;;10.20;7.25;;;;;;;-142.75;100.00;76408.88;5023880;28;20059;-64
2023/06/17 06:12:31;;;;;;;10.90;7.28;;;;;;;-142.75;100.00;76412.81;5024037;28;20025;-63
2023/06/17 06:14:57;;;;;;;10.32;6.93;;;;;;;-142.75;100.00;76402.97;5024284;28;20026;-61
2023/06/17 06:17:23;;;;;;;13.48;8.57;;;;;;;-142.75;100.00;76381.31;5024463;28;20033;-62
2023/06/17 06:19:48;;;;;;;11.35;7.82;;;;;;;-142.75;100.00;76373.44;5023857;28;20659;-62
2023/06/17 06:22:14;;;;;;;13.18;7.85;;;;;;;-142.75;100.00;76345.91;5022927;28;20512;-62
2023/06/17 06:24:39;;;;;;;11.30;7.15;;;;;;;-142.75;100.00;76334.09;5024036;28;20017;-62
2023/06/17 06:27:04;;;;;;;11.70;7.68;;;;;;;-142.75;100.00;76310.47;5024624;28;20105;-61
2023/06/17 06:29:30;;;;;;;13.90;8.13;;;;;;;-142.75;100.00;76290.78;5029318;28;20532;-62
2023/06/17 06:31:55;;;;;;;13.85;7.82;;;;;;;-142.75;100.00;76275.03;5027457;28;20094;-63
2023/06/17 06:34:20;;;;;;;11.55;6.63;;;;;;;-142.75;100.00;76282.91;5028380;28;20017;-62
2023/06/17 06:36:45;;;;;;;12.20;6.85;;;;;;;-142.75;100.00;76278.97;5029066;28;20087;-62
2023/06/17 06:39:11;;;;;;;15.13;7.05;;;;;;;-142.75;100.00;76269.13;5029858;28;20018;-63
2023/06/17 06:41:36;;;;;;;10.63;6.60;;;;;;;-142.75;100.00;76259.28;5027867;28;20033;-63
2023/06/17 06:44:01;;;;;;;8.43;6.03;;;;;;;-142.75;100.00;76243.53;5028038;28;20025;-63
2023/06/17 06:46:27;;;;;;;9.60;5.60;;;;;;;-142.75;100.00;76243.53;5028422;28;20029;-64
2023/06/17 06:48:52;;;;;;;10.00;5.70;;;;;;;-142.75;100.00;76215.97;5028405;28;20116;-63
2023/06/17 06:51:17;;;;;;;9.10;5.57;;;;;;;-142.75;100.00;76219.91;5028226;28;20124;-64
2023/06/17 06:53:43;;;;;;;7.60;5.18;;;;;;;-142.75;100.00;76206.13;5028734;28;20025;-63
2023/06/17 06:56:08;;;;;;;7.00;5.18;;;;;;;-142.75;99.65;76200.25;5025325;28;20029;-63
2023/06/17 06:58:33;;;;;;;11.45;5.43;;;;;;;-142.75;100.00;76168.75;5027066;28;20021;-59
2023/06/17 07:00:59;;;;;;;9.57;5.40;;;;;;;-142.75;100.00;76143.16;5027556;28;20112;-65
2023/06/17 07:03:24;;;;;;;9.27;4.55;;;;;;;-142.75;97.86;76135.28;5028430;28;20033;-64
2023/06/17 07:05:50;;;;;;;9.43;4.35;;;;;;;-142.75;97.89;76113.63;5029195;28;20394;-64
2023/06/17 07:08:15;;;;;;;7.45;4.55;;;;;;;-142.75;96.88;76113.63;5029049;28;20029;-63
2023/06/17 07:10:40;;;;;;;8.82;5.35;;;;;;;-142.75;99.92;76101.81;5029242;28;20060;-64
2023/06/17 07:13:06;;;;;;;10.40;6.18;;;;;;;-142.75;94.40;76074.25;5027892;28;20440;-63
2023/06/17 07:15:32;;;;;;;8.00;6.15;;;;;;;-142.75;97.16;76042.78;5026244;28;20101;-63
2023/06/17 07:17:57;;;;;;;12.60;6.68;;;;;;;-142.75;92.86;76034.91;5027249;28;20124;-64
2023/06/17 07:20:22;;;;;;;9.30;5.70;;;;;;;-142.75;87.95;76036.88;5028259;28;20025;-65
2023/06/17 07:22:48;;;;;;;7.72;5.30;;;;;;;-142.75;88.66;76017.19;5027851;28;20029;-64
2023/06/17 07:25:13;;;;;;;10.00;5.63;;;;;;;-142.75;84.49;76009.31;5028845;28;20191;-63
2023/06/17 07:27:38;;;;;;;10.52;5.13;;;;;;;-142.75;84.26;75991.59;5028677;28;20025;-63
2023/06/17 07:30:05;;;;;;;8.98;4.93;;;;;;;-142.75;80.09;75981.75;5028792;28;20402;-64
2023/06/17 07:32:30;;;;;;;8.07;5.38;;;;;;;-142.75;78.41;75989.63;5028756;28;20017;-64
2023/06/17 07:34:56;;;;;;;8.52;4.50;;;;;;;-142.75;81.77;75969.94;5028116;28;20406;-63
2023/06/17 07:37:21;;;;;;;8.52;4.20;;;;;;;-142.75;80.21;75952.25;5027003;28;20032;-63
2023/06/17 07:39:46;;;;;;;7.18;4.18;;;;;;;-142.75;78.31;75942.41;5028631;28;20510;-62
2023/06/17 07:42:15;;;;;;;8.55;4.30;;;;;;;-142.75;76.31;75932.56;5028343;28;20022;-63
2023/06/17 07:44:41;;;;;;;6.63;3.88;;;;;;;-142.75;76.95;75932.56;5028713;28;20469;-63
2023/06/17 07:47:06;;;;;;;5.88;3.70;;;;;;;-142.75;77.65;75901.06;5028627;28;20108;-62
2023/06/17 07:49:33;;;;;;;4.82;3.20;;;;;;;-142.75;77.59;75897.13;5043933;28;20022;-62
2023/06/17 07:51:58;;;;;;;6.28;3.75;;;;;;;-142.75;75.35;75885.31;5028401;28;20028;-62
2023/06/17 07:54:24;;;;;;;5.80;3.38;;;;;;;-142.75;75.49;75879.41;5028564;28;20025;-62
2023/06/17 07:56:50;;;;;;;6.28;3.47;;;;;;;-142.75;73.51;75865.63;5028335;28;20538;-63
2023/06/17 07:59:15;;;;;;;6.53;3.28;;;;;;;-142.75;75.59;75857.78;5028198;28;20028;-63
2023/06/17 08:01:41;;;;;;;6.40;3.53;;;;;;;-142.75;77.50;75842.03;5028080;28;20105;-63
2023/06/17 08:04:06;;;;;;;4.90;3.25;;;;;;;-142.75;72.63;75828.25;5028187;28;20128;-62
2023/06/17 08:06:31;;;;;;;4.97;3.10;;;;;;;-142.75;75.26;75798.72;5028328;28;20025;-62
2023/06/17 08:08:58;;;;;;;7.47;4.43;;;;;;;-142.75;72.51;75810.53;5028168;28;20032;-63
2023/06/17 08:11:23;;;;;;;5.85;3.47;;;;;;;-142.75;73.82;75771.16;5028120;28;20095;-62
2023/06/17 08:13:48;;;;;;;5.75;3.55;;;;;;;-142.75;73.10;75749.53;5028164;28;20021;-63
2023/06/17 08:16:13;;;;;;;5.72;3.85;;;;;;;-142.75;71.93;75751.50;5043675;28;20556;-63
2023/06/17 08:18:39;;;;;;;6.70;3.20;;;;;;;-142.75;72.76;75737.72;5027730;28;20060;-63
2023/06/17 08:21:04;;;;;;;7.03;4.07;;;;;;;-142.75;71.36;75716.06;5027801;28;20021;-63
2023/06/17 08:23:29;;;;;;;6.50;4.25;;;;;;;-142.75;70.26;75700.31;5027823;28;20438;-64
2023/06/17 08:25:56;;;;;;;7.72;3.60;;;;;;;-142.75;71.22;75720.00;5027868;28;20036;-62
2023/06/17 08:28:21;;;;;;;6.60;4.07;;;;;;;-142.75;73.35;75708.19;5027728;28;20029;-64
2023/06/17 08:30:49;;;;;;;6.75;3.67;;;;;;;-142.75;67.47;75688.50;5027742;28;20030;-62
2023/06/17 08:33:15;;;;;;;9.70;3.88;;;;;;;-142.75;66.15;75672.78;5027476;28;20540;-63
2023/06/17 08:35:40;;;;;;;7.00;3.83;;;;;;;-142.75;65.31;75668.84;5027580;28;20026;-62
2023/06/17 08:38:05;;;;;;;9.77;4.10;;;;;;;-142.75;62.29;75702.28;5027798;28;20066;-63
2023/06/17 08:40:32;;;;;;;5.07;3.08;;;;;;;-142.75;64.26;75664.91;5027755;28;20025;-62
2023/06/17 08:43:02;;;;;;;5.25;3.00;;;;;;;-142.75;64.72;75639.31;5027150;28;20026;-63
2023/06/17 08:45:28;;;;;;;5.57;2.63;;;;;;;-142.75;62.02;75643.25;5027800;28;20045;-63
2023/06/17 08:47:53;;;;;;;4.80;3.50;;;;;;;-142.75;68.15;75623.56;5027258;28;20230;-62
2023/06/17 08:50:19;;;;;;;5.22;3.30;;;;;;;-142.75;64.97;75607.81;5027263;28;20802;-62
2023/06/17 08:52:46;;;;;;;5.28;3.03;;;;;;;-142.75;62.36;75590.13;5027134;28;20093;-62
2023/06/17 08:55:12;;;;;;;4.93;3.63;;;;;;;-142.75;65.99;75572.41;5027393;28;20030;-63
2023/06/17 08:57:40;;;;;;;7.90;4.40;;;;;;;-142.75;60.34;75594.06;5027227;28;20022;-63
2023/06/17 09:00:08;;;;;;;5.82;3.70;;;;;;;-142.75;65.36;75582.25;5027132;28;20018;-61
2023/06/17 09:02:35;;;;;;;8.80;3.97;;;;;;;-142.75;66.01;75566.50;5026683;28;20112;-63
2023/06/17 09:05:01;;;;;;;6.45;4.38;;;;;;;-142.75;62.96;75594.06;5027337;28;20065;-64
2023/06/17 09:07:26;;;;;;;6.05;4.13;;;;;;;-142.75;63.50;75611.75;5027079;28;20060;-62
2023/06/17 09:09:55;;;;;;;7.80;3.95;;;;;;;-142.75;65.42;75582.25;5026987;28;20380;-63
2023/06/17 09:12:23;;;;;;;5.05;3.97;;;;;;;-142.75;69.71;75540.91;5026737;28;20022;-63
2023/06/17 09:14:48;;;;;;;8.15;3.63;;;;;;;-142.75;68.59;75519.25;5026997;28;20029;-62
2023/06/17 09:17:31;;;;;;;5.60;3.45;;;;;;;-142.75;66.20;75503.53;5042051;28;20021;-62
2023/06/17 09:20:08;;;;;;;5.18;3.72;;;;;;;-142.75;70.04;75491.72;5027099;28;20059;-62
2023/06/17 09:22:35;;;;;;;5.78;3.30;;;;;;;-142.75;64.03;75483.84;5026390;28;20116;-60
2023/06/17 09:25:00;;;;;;;7.10;4.30;;;;;;;-142.75;60.77;75489.75;5027122;28;20556;-62
2023/06/17 09:27:26;;;;;;;5.65;3.70;;;;;;;-142.75;59.47;75479.91;5026605;28;20025;-62
2023/06/17 09:30:09;;;;;;;6.15;3.60;;;;;;;-142.75;62.02;75446.44;5026584;28;20025;-63
2023/06/17 09:32:39;;;;;;;6.63;3.30;;;;;;;-142.75;61.50;75444.47;5026462;28;20021;-62
2023/06/17 09:35:05;;;;;;;4.82;3.15;;;;;;;-142.75;62.10;75434.66;5026628;28;20510;-62
2023/06/17 09:37:31;;;;;;;5.88;3.50;;;;;;;-142.75;57.53;75452.34;5026795;28;20025;-62
2023/06/17 09:39:58;;;;;;;8.90;3.67;;;;;;;-142.75;63.69;75426.78;5026463;28;20025;-62
2023/06/17 09:42:30;;;;;;;7.13;3.58;;;;;;;-142.75;62.55;75407.09;5026046;28;20026;-62
2023/06/17 09:44:55;;;;;;;7.18;3.70;;;;;;;-142.75;59.15;75411.03;5026502;28;20027;-62
2023/06/17 09:47:32;;;;;;;5.40;2.97;;;;;;;-142.75;56.35;75391.34;5026517;28;20116;-62
2023/06/17 09:50:03;;;;;;;4.63;2.97;;;;;;;-142.75;56.63;75403.16;5026514;28;20021;-62
2023/06/17 09:52:30;;;;;;;5.20;3.00;;;;;;;-142.75;60.82;75365.75;5026433;28;20030;-62
2023/06/17 09:54:58;;;;;;;6.10;3.53;;;;;;;-142.75;60.53;75336.25;5026511;28;20029;-60
2023/06/17 09:57:26;;;;;;;5.82;3.25;;;;;;;-142.75;56.49;75320.50;5026319;28;20135;-62
2023/06/17 09:59:55;;;;;;;7.47;3.17;;;;;;;-142.75;59.24;75292.97;5028416;28;20028;-63
2023/06/17 10:02:20;;;;;;;5.03;3.17;;;;;;;-142.75;56.43;75294.94;5032763;28;20121;-62
2023/06/17 10:04:46;;;;;;;5.38;3.08;;;;;;;-142.75;58.63;75308.69;5032951;28;20108;-62
2023/06/17 10:07:13;;;;;;;5.50;2.67;;;;;;;-142.75;55.17;75289.03;5033020;28;20037;-62
2023/06/17 10:09:40;;;;;;;7.18;3.47;;;;;;;-142.75;55.10;75300.81;5048106;28;20397;-62
2023/06/17 10:12:07;;;;;;;6.53;3.08;;;;;;;-142.75;51.53;75310.66;5030393;28;20025;-62
2023/06/17 10:14:34;;;;;;;4.95;2.95;;;;;;;-142.75;53.67;75267.38;5033403;28;20061;-64
2023/06/17 10:17:02;;;;;;;6.30;3.33;;;;;;;-142.75;52.45;75257.53;5032806;28;20128;-62
2023/06/17 10:19:31;;;;;;;5.22;2.72;;;;;;;-142.75;53.82;75243.75;5032527;28;20029;-63
2023/06/17 10:22:00;;;;;;;8.57;3.40;;;;;;;-142.75;51.35;75245.72;5032191;28;20110;-62
2023/06/17 10:24:26;;;;;;;4.93;3.08;;;;;;;-142.75;53.85;75226.06;5032683;28;20029;-62
2023/06/17 10:26:52;;;;;;;4.80;2.83;;;;;;;-142.75;48.12;75208.34;5032375;28;20563;-62
2023/06/17 10:29:18;;;;;;;7.82;3.03;;;;;;;-142.75;49.38;75224.09;5032346;28;20029;-63
2023/06/17 10:31:43;;;;;;;7.00;3.15;;;;;;;-142.75;48.50;75212.28;5031422;28;20611;-62
2023/06/17 10:34:21;;;;;;;4.57;3.10;;;;;;;-142.75;49.97;75192.59;5031274;28;20108;-63
2023/06/17 10:36:58;;;;;;;4.43;2.67;;;;;;;-142.75;51.08;75168.97;5031373;28;20039;-62
2023/06/17 10:39:24;;;;;;;8.57;3.30;;;;;;;-142.75;49.02;75163.09;5032953;28;20029;-62
2023/06/17 10:41:50;;;;;;;7.57;2.70;;;;;;;-142.75;50.87;75159.16;5032475;28;20029;-63
2023/06/17 10:44:34;;;;;;;7.80;2.70;;;;;;;-142.75;47.93;75153.25;5032655;28;20038;-62
2023/06/17 10:47:01;;;;;;;3.78;2.42;;;;;;;-142.75;45.36;75165.03;5032790;28;20029;-63
2023/06/17 10:49:38;;;;;;;8.75;3.08;;;;;;;-142.75;50.94;75141.44;5032568;28;20018;-63
2023/06/17 10:52:04;;;;;;;6.32;3.30;;;;;;;-142.75;50.57;75174.88;5032540;28;20029;-63
2023/06/17 10:54:31;;;;;;;5.97;3.33;;;;;;;-142.75;53.38;75188.66;5032649;28;20071;-63
2023/06/17 10:56:57;;;;;;;6.65;3.35;;;;;;;-142.75;50.73;75204.41;5032624;28;20037;-63
2023/06/17 10:59:29;;;;;;;4.93;2.60;;;;;;;-142.75;57.17;75172.91;5032397;28;20409;-63
2023/06/17 11:02:08;;;;;;;4.10;2.90;;;;;;;-142.75;51.43;75147.34;5032221;28;20040;-63
2023/06/17 11:04:40;;;;;;;4.30;2.80;;;;;;;-142.75;51.40;75119.78;5032660;28;20060;-63